Flight Track Log - Related Links

Times and Time Zones

All times are in EDT time to prevent confusion due to time zone crossing. See the KNZ610 flight status page for this flight to view local times or setup timezone preferences in your user account.

Time Position Orientation Groundspeed Altitude Reporting Facility
EDT Latitude Longitude Course Direction KTS MPH feet Rate Location/Type
Thu 09:38:26 PM 37.0467 -88.7558 208° Southwest 264 304 1,300  Level Memphis Center
Thu 09:39:26 PM 37.0133 -88.7722 201° Southwest 167 192 2,100 1,050 Climbing Memphis Center
Thu 09:40:26 PM 36.9742 -88.7964 206° Southwest 155 178 3,400 1,250 Climbing Memphis Center
Thu 09:41:26 PM 36.9306 -88.8206 204° Southwest 168 193 4,600 1,200 Climbing Memphis Center
Thu 09:42:00 PM 36.6961 -88.9757 206° Southwest  Level FlightAware Approximate
Thu 09:42:26 PM 36.8894 -88.8525 212° Southwest 173 199 5,800  Level Memphis Center
Thu 09:43:00 PM 36.6379 -89.0136 208° Southwest  Level FlightAware Approximate
Thu 09:43:26 PM 36.8439 -88.8792 205° Southwest 178 205 6,900  Level Memphis Center
Thu 09:44:26 PM 36.8003 -88.9058 206° Southwest 178 205 8,000 1,150 Climbing Memphis Center
Thu 09:45:26 PM 36.7569 -88.9325 206° Southwest 178 205 9,200 1,150 Climbing Memphis Center
Thu 09:46:26 PM 36.7094 -88.9619 206° Southwest 178 205 10,300 1,100 Climbing Memphis Center
Thu 09:47:26 PM 36.6639 -88.9886 205° Southwest 183 211 11,400 1,100 Climbing Memphis Center
Thu 09:48:26 PM 36.6161 -89.0178 206° Southwest 183 211 12,500 1,050 Climbing Memphis Center
Thu 09:49:26 PM 36.5706 -89.0469 207° Southwest 188 216 13,500 950 Climbing Memphis Center
Thu 09:50:26 PM 36.5208 -89.0761 205° Southwest 188 216 14,400 900 Climbing Memphis Center
Thu 09:51:26 PM 36.4711 -89.1053 205° Southwest 193 222 15,300 800 Climbing Memphis Center
Thu 09:52:26 PM 36.4236 -89.1344 206° Southwest 193 222 16,000 700 Climbing Memphis Center
Thu 09:53:26 PM 36.3781 -89.1608 205° Southwest 199 229 16,700 750 Climbing Memphis Center
Thu 09:54:26 PM 36.3283 -89.1925 207° Southwest 199 229 17,500 600 Climbing Memphis Center
Thu 09:55:26 PM 36.2764 -89.2242 206° Southwest 199 229 17,900 500 Climbing Memphis Center
Thu 09:56:26 PM 36.2267 -89.2558 207° Southwest 199 229 18,500 550 Climbing Memphis Center
Thu 09:57:26 PM 36.1769 -89.2872 207° Southwest 199 229 19,000 450 Climbing Memphis Center
Thu 09:58:26 PM 36.1231 -89.3189 205° Southwest 199 229 19,400 450 Climbing Memphis Center
Thu 09:59:26 PM 36.0711 -89.3503 206° Southwest 199 229 19,900 450 Climbing Memphis Center
Thu 10:00:26 PM 36.0192 -89.3844 208° Southwest 199 229 20,300 450 Climbing Memphis Center
Thu 10:01:26 PM 35.9672 -89.4131 204° Southwest 204 235 20,800 500 Climbing Memphis Center
Thu 10:02:26 PM 35.9133 -89.4472 207° Southwest 210 242 21,300 500 Climbing Memphis Center
Thu 10:03:26 PM 35.8594 -89.4786 205° Southwest 215 247 21,800 350 Climbing Memphis Center
Thu 10:04:26 PM 35.8075 -89.5122 208° Southwest 215 247 22,000 100 Climbing Memphis Center
Thu 10:05:26 PM 35.7494 -89.5461 205° Southwest 221 254 22,000  Level Memphis Center
Thu 10:06:26 PM 35.6892 -89.5825 206° Southwest 232 267 22,000  Level Memphis Center
Thu 10:07:26 PM 35.6247 -89.6239 208° Southwest 232 267 22,000  Level Memphis Center
Thu 10:08:26 PM 35.5622 -89.6603 205° Southwest 247 284 22,000  Level Memphis Center
Thu 10:09:26 PM 35.5000 -89.6964 205° Southwest 247 284 22,000 -150 Level Memphis Center
Thu 10:10:26 PM 35.4417 -89.7328 207° Southwest 247 284 21,700 -700 Descending Memphis Center
Thu 10:11:26 PM 35.3753 -89.7739 207° Southwest 254 292 20,600 -1,000 Descending Memphis Center
Thu 10:12:26 PM 35.3044 -89.8125 204° Southwest 270 311 19,700 -850 Descending Memphis Center
Thu 10:13:26 PM 35.2336 -89.8564 207° Southwest 284 327 18,900 -700 Descending Memphis Center
Thu 10:14:26 PM 35.1650 -89.8972 206° Southwest 279 321 18,300 -400 Descending Memphis Center
Thu 10:15:26 PM 35.1006 -89.9383 208° Southwest 279 321 18,100 -150 Descending Memphis Center
Thu 10:16:26 PM 35.0339 -89.9742 204° Southwest 269 310 18,000  Descending Memphis Center
Thu 10:18:26 PM 34.9256 -90.0658 215° Southwest 257 296 18,100 33 Climbing Memphis Center
Thu 10:19:26 PM 34.8672 -90.1142 214° Southwest 257 296 18,100 -50 Level Memphis Center
Thu 10:20:26 PM 34.8111 -90.1597 214° Southwest 257 296 18,000  Descending Memphis Center
Thu 10:21:26 PM 34.7528 -90.2106 216° Southwest 257 296 18,100  Climbing Memphis Center
Thu 10:22:26 PM 34.6986 -90.2561 215° Southwest 257 296 18,000  Descending Memphis Center
Thu 10:23:26 PM 34.6400 -90.3042 214° Southwest 257 296 18,100 50 Climbing Memphis Center
Thu 10:24:26 PM 34.5839 -90.3522 215° Southwest 257 296 18,100 -50 Level Memphis Center
Thu 10:25:26 PM 34.5253 -90.3975 212° Southwest 257 296 18,000 -50 Descending Memphis Center
Thu 10:26:26 PM 34.4711 -90.4453 216° Southwest 257 296 18,000  Level Memphis Center
Thu 10:27:26 PM 34.4083 -90.4931 212° Southwest 257 296 18,000  Level Memphis Center
Thu 10:28:26 PM 34.3519 -90.5433 216° Southwest 257 296 18,000  Level Memphis Center
Thu 10:29:26 PM 34.2956 -90.5911 215° Southwest 257 296 18,000  Level Memphis Center
Thu 10:30:26 PM 34.2392 -90.6386 215° Southwest 252 290 18,000  Level Memphis Center
Thu 10:31:26 PM 34.1847 -90.6811 213° Southwest 252 290 18,000  Level Memphis Center
Thu 10:32:26 PM 34.1264 -90.7311 215° Southwest 252 290 18,000  Level Memphis Center
Thu 10:33:26 PM 34.0719 -90.7783 216° Southwest 252 290 18,000  Level Memphis Center
Thu 10:34:26 PM 34.0133 -90.8208 211° Southwest 252 290 18,000  Level Memphis Center
Thu 10:35:26 PM 33.9608 -90.8681 217° Southwest 252 290 18,000  Level Memphis Center
Thu 10:36:26 PM 33.9064 -90.9153 216° Southwest 246 283 18,000  Level Memphis Center
Thu 10:37:26 PM 33.8561 -90.9575 215° Southwest 246 283 18,000  Level Memphis Center
Thu 10:38:26 PM 33.7975 -91.0022 212° Southwest 246 283 18,000  Level Memphis Center
Thu 10:39:26 PM 33.7431 -91.0467 214° Southwest 246 283 18,000  Level Memphis Center
Thu 10:40:26 PM 33.6781 -91.1011 215° Southwest 253 291 18,000  Level Memphis Center
Thu 10:41:26 PM 33.6233 -91.1456 214° Southwest 247 284 18,000  Level Memphis Center
Thu 10:42:26 PM 33.5667 -91.1900 213° Southwest 247 284 18,000  Level Memphis Center
Thu 10:43:26 PM 33.5100 -91.2367 214° Southwest 242 278 18,000  Level Memphis Center
Thu 10:44:26 PM 33.4575 -91.2811 215° Southwest 242 278 18,000  Level Memphis Center
Thu 10:45:26 PM 33.4008 -91.3253 213° Southwest 242 278 18,000  Level Memphis Center
Thu 10:46:26 PM 33.3464 -91.3694 214° Southwest 242 278 18,000  Level Memphis Center
Thu 10:47:26 PM 33.3061 -91.4311 232° Southwest 242 278 18,000  Level Memphis Center
Thu 10:48:26 PM 33.2931 -91.5081 259° West 234 269 18,000  Level Memphis Center
Thu 10:49:26 PM 33.2756 -91.5847 255° West 234 269 18,000  Level Memphis Center
Thu 10:51:03 PM 33.2569 -91.7078 260° West 241 277 18,000  Level Fort Worth Center
Thu 10:52:03 PM 33.2417 -91.7858 257° West 241 277 18,000  Level Fort Worth Center
Thu 10:53:03 PM 33.2203 -91.8642 252° West 246 283 18,000  Level Fort Worth Center
Thu 10:54:03 PM 33.2086 -91.9367 259° West 246 283 18,000  Level Fort Worth Center
Thu 10:55:02 PM 33.1872 -92.0150 252° West 251 289 18,000 -101 Level Fort Worth Center
Thu 10:56:02 PM 33.1697 -92.0981 256° West 251 289 17,800 -500 Descending Fort Worth Center
Thu 10:57:02 PM 33.1506 -92.1858 255° West 262 302 17,000 -900 Descending Fort Worth Center
Thu 10:58:02 PM 33.1292 -92.2789 255° West 284 327 16,000 -1,000 Descending Fort Worth Center
Thu 10:59:02 PM 33.1058 -92.3719 253° West 289 333 15,000 -1,000 Descending Fort Worth Center
Thu 11:00:02 PM 33.0867 -92.4672 257° West 294 338 14,000 -900 Descending Fort Worth Center
Thu 11:01:02 PM 33.0653 -92.5578 254° West 289 333 13,200 -446 Descending Fort Worth Center
Thu 11:02:03 PM 33.0456 -92.6406 254° West 283 326 13,100 -50 Descending Fort Worth Center
Thu 11:03:03 PM 33.0278 -92.7258 256° West 278 320 13,100 -205 Level Fort Worth Center
Thu 11:04:00 PM 33.0019 -92.8164 251° West 255 293 12,700 -769 Descending Fort Worth Center
Thu 11:05:00 PM 32.9672 -92.8922 241° Southwest 280 322 11,600 -1,190 Descending Fort Worth Center
Thu 11:06:01 PM 32.9131 -92.9569 225° Southwest 278 320 10,300 -1,279 Descending Fort Worth Center
Thu 11:07:02 PM 32.8589 -93.0189 224° Southwest 270 311 9,000 -1,339 Descending Fort Worth Center
Thu 11:08:02 PM 32.8044 -93.0761 221° Southwest 260 299 7,600 -1,350 Descending Fort Worth Center
Thu 11:09:02 PM 32.7583 -93.1253 222° Southwest 269 310 6,300 -1,250 Descending Fort Worth Center
Thu 11:10:02 PM 32.7017 -93.1797 219° Southwest 263 303 5,100 -595 Descending Fort Worth Center
Thu 11:11:03 PM 32.6494 -93.2414 225° Southwest 252 290 5,100  Level Fort Worth Center
Thu 11:12:03 PM 32.6053 -93.2953 226° Southwest 237 273 5,100  Level Fort Worth Center
Thu 11:13:02 PM 32.5633 -93.3489 227° Southwest 226 260 5,100  Level Fort Worth Center
Thu 11:14:06 PM 32.5192 -93.4075 228° Southwest 223 257 5,100 -242 Level Fort Worth Center
Thu 11:15:06 PM 32.4814 -93.4683 234° Southwest 232 267 4,600 -828 Descending Fort Worth Center
Thu 11:16:02 PM 32.4458 -93.5289 235° Southwest 244 281 3,500 -1,034 Descending Fort Worth Center
Thu 11:17:02 PM 32.4417 -93.5981 266° West 238 274 2,600 -700 Descending Fort Worth Center
Thu 11:18:02 PM 32.4461 -93.6767 274° West 233 268 2,100 -236 Descending Fort Worth Center
Thu 11:19:09 PM 32.4397 -93.7433 264° West 163 188 2,100 -189 Level Fort Worth Center
Thu 11:20:09 PM 32.4264 -93.7881 251° West 130 150 1,700 -545 Descending Fort Worth Center
Thu 11:21:10 PM 32.4294 -93.8272 275° West 124 143 1,000 -492 Descending Fort Worth Center
Thu 11:22:11 PM 32.4128 -93.8206 161° South 126 145 700 -295 Descending Fort Worth Center

Login

Don't have an account? Register now (free) for customized features, flight alerts, and more!